ルレオ の空港の天気 - METARとTAF

Lulea / Kallax ( ESPA / LLA ) - スウェーデン ルレオ
飛行場実況気象(Metar)
観測時間02/17 23:50 CET (02/17 22:50 UTC)
風向・風速南 2m/s
視程10km以上
天気現象
なし
気温-8℃
湿度93%
気圧1017hPa
METARESPA 172250Z AUTO 17004KT 9999 NCD M08/M09 Q1017
過去の天気等 Google飛行場航空写真 Wunderground天気予報

過去48時間のMETAR

飛行場予報(TAF)
発表時間: 2/17 21:30 CET (2/17 20:30 UTC)
予報対象時間: 17日22時 CET ~ 18日1時 CET
風向・風速不定 1m/s
視程10km以上
なし
TAF ESPA 172030Z 1721/1724 VRB02KT CAVOK